Time;durP1;ratioP1;P1;durP2;ratioP2;P2;SDS_P1;SDS_P2;PMS_P1;PMS_P2;Temp;Humidity;BMP_temperature;BMP_pressure;BME280_temperature;BME280_humidity;BME280_pressure;Samples;Min_cycle;Max_cycle;Signal;HPM_P1;HPM_P2
2021/03/05 00:00:15;;;;;;;;;;;;;;;30.28;22.17;100630.06;5119527;28;848;-31
2021/03/05 00:02:40;;;;;;;;;;;;;;;30.36;21.84;100624.44;5120242;28;791;-34
2021/03/05 00:05:06;;;;;;;;;;;;;;;30.24;21.99;100626.94;5120362;28;854;-35
2021/03/05 00:07:31;;;;;;;;;;;;;;;29.97;21.82;100624.16;5119816;28;791;-31
2021/03/05 00:09:56;;;;;;;;;;;;;;;30.18;21.87;100625.00;5119968;28;1897;-33
2021/03/05 00:12:22;;;;;;;;;;;;;;;30.35;21.81;100619.19;5119964;28;989;-29
2021/03/05 00:14:47;;;;;;;;;;;;;;;30.54;21.47;100622.97;5119691;28;878;-32
2021/03/05 00:17:12;;;;;;;;;;;;;;;30.26;21.46;100613.16;5119718;28;1554;-31
2021/03/05 00:19:38;;;;;;;;;;;;;;;30.03;21.56;100614.38;5120087;28;909;-32
2021/03/05 00:22:04;;;;;;;;;;;;;;;30.01;22.02;100619.16;5119750;28;771;-34
2021/03/05 00:24:29;;;;;;;;;;;;;;;30.36;21.79;100610.03;5119381;27;871;-30
2021/03/05 00:26:55;;;;;;;;;;;;;;;30.46;21.31;100613.16;5119656;28;941;-37
2021/03/05 00:29:20;;;;;;;;;;;;;;;30.26;21.57;100610.44;5119572;28;1897;-29
2021/03/05 00:31:45;;;;;;;;;;;;;;;30.01;21.48;100602.88;5116584;28;803;-31
2021/03/05 00:34:11;;;;;;;;;;;;;;;30.04;21.76;100597.88;5119510;28;833;-30
2021/03/05 00:36:36;;;;;;;;;;;;;;;30.34;21.62;100604.81;5118173;28;1158;-33
2021/03/05 00:39:01;;;;;;;;;;;;;;;30.47;21.46;100600.41;5119226;28;742;-37
2021/03/05 00:41:27;;;;;;;;;;;;;;;30.26;21.60;100605.84;5126792;27;1234;-33
2021/03/05 00:43:52;;;;;;;;;;;;;;;29.93;21.60;100601.19;5139911;27;846;-35
2021/03/05 00:46:17;;;;;;;;;;;;;;;29.99;21.64;100592.25;5139794;27;818;-31
2021/03/05 00:48:43;;;;;;;;;;;;;;;30.30;21.58;100588.09;5140083;27;1909;-30
2021/03/05 00:51:08;;;;;;;;;;;;;;;30.39;21.29;100588.75;5139749;27;787;-33
2021/03/05 00:53:33;;;;;;;;;;;;;;;30.24;21.24;100580.81;5139526;27;811;-32
2021/03/05 00:56:02;;;;;;;;;;;;;;;30.13;21.22;100590.34;5139645;27;1010;-30
2021/03/05 00:58:27;;;;;;;;;;;;;;;29.90;22.01;100588.88;5139583;27;787;-32
2021/03/05 01:00:52;;;;;;;;;;;;;;;30.10;21.71;100585.34;5139632;27;807;-33
2021/03/05 01:03:17;;;;;;;;;;;;;;;30.29;21.57;100581.03;5140027;27;774;-31
2021/03/05 01:05:43;;;;;;;;;;;;;;;30.38;21.39;100580.81;5139899;27;875;-35
2021/03/05 01:08:08;;;;;;;;;;;;;;;30.15;21.38;100576.59;5139385;27;755;-30
2021/03/05 01:10:34;;;;;;;;;;;;;;;29.96;21.60;100561.97;5139228;27;1980;-30
2021/03/05 01:12:59;;;;;;;;;;;;;;;30.13;21.48;100573.25;5139165;27;819;-32
2021/03/05 01:15:24;;;;;;;;;;;;;;;30.32;21.50;100574.31;5138888;27;839;-34
2021/03/05 01:17:50;;;;;;;;;;;;;;;30.44;21.28;100563.69;5126879;27;1596;-33
2021/03/05 01:20:19;;;;;;;;;;;;;;;30.17;21.34;100564.50;5118671;28;824;-36
2021/03/05 01:22:44;;;;;;;;;;;;;;;30.01;21.53;100559.47;5118514;28;798;-34
2021/03/05 01:25:10;;;;;;;;;;;;;;;30.03;21.65;100566.34;5118545;28;803;-34
2021/03/05 01:27:36;;;;;;;;;;;;;;;30.29;21.54;100559.31;5136209;27;937;-32
2021/03/05 01:30:03;;;;;;;;;;;;;;;30.51;20.92;100559.06;5137721;27;1988;-42
2021/03/05 01:32:28;;;;;;;;;;;;;;;30.30;21.41;100563.69;5139203;27;796;-33
2021/03/05 01:34:53;;;;;;;;;;;;;;;30.18;21.48;100562.59;5139068;27;869;-33
2021/03/05 01:37:19;;;;;;;;;;;;;;;30.08;21.49;100565.72;5121163;27;1125;-34
2021/03/05 01:39:44;;;;;;;;;;;;;;;30.37;21.33;100570.97;5118186;28;644;-33
2021/03/05 01:42:09;;;;;;;;;;;;;;;30.37;21.33;100566.41;5117510;28;1140;-31
2021/03/05 01:44:34;;;;;;;;;;;;;;;30.29;21.11;100566.59;5117973;28;822;-36
2021/03/05 01:47:00;;;;;;;;;;;;;;;29.86;21.58;100565.94;5118171;28;815;-31
2021/03/05 01:49:25;;;;;;;;;;;;;;;29.72;21.66;100564.22;5118228;28;1967;-30
2021/03/05 01:51:50;;;;;;;;;;;;;;;30.31;21.35;100559.91;5117665;28;668;-32
2021/03/05 01:54:16;;;;;;;;;;;;;;;30.48;20.92;100567.63;5117981;28;869;-34
2021/03/05 01:56:44;;;;;;;;;;;;;;;30.16;21.03;100567.41;5118178;28;966;-33
2021/03/05 01:59:11;;;;;;;;;;;;;;;29.71;21.47;100566.13;5117766;28;790;-31
2021/03/05 02:01:36;;;;;;;;;;;;;;;29.41;22.06;100553.69;5118002;28;837;-33
2021/03/05 02:04:02;;;;;;;;;;;;;;;30.17;21.30;100559.06;5118086;28;782;-30
2021/03/05 02:06:27;;;;;;;;;;;;;;;30.41;20.85;100556.78;5117163;28;838;-31
2021/03/05 02:08:52;;;;;;;;;;;;;;;29.96;21.07;100556.56;5117651;28;1955;-29
2021/03/05 02:11:21;;;;;;;;;;;;;;;29.53;21.68;100555.84;5117707;28;965;-32
2021/03/05 02:13:46;;;;;;;;;;;;;;;29.80;21.62;100558.59;5117450;28;760;-34
2021/03/05 02:16:32;;;;;;;;;;;;;;;30.34;21.07;100565.97;5118287;28;786;-31
2021/03/05 02:18:57;;;;;;;;;;;;;;;30.56;20.83;100563.88;5097299;28;779;-32
2021/03/05 02:21:41;;;;;;;;;;;;;;;29.98;21.00;100559.91;5096442;28;981;-32
2021/03/05 02:24:20;;;;;;;;;;;;;;;29.58;21.52;100556.88;5097215;28;863;-31
2021/03/05 02:27:04;;;;;;;;;;;;;;;30.01;21.31;100562.19;5106897;28;958;-31
2021/03/05 02:29:35;;;;;;;;;;;;;;;30.38;20.83;100561.81;5116838;28;1914;-30
2021/03/05 02:32:04;;;;;;;;;;;;;;;30.56;20.50;100563.88;5116640;28;799;-33
2021/03/05 02:34:33;;;;;;;;;;;;;;;30.17;20.65;100567.22;5116059;28;837;-32
2021/03/05 02:36:59;;;;;;;;;;;;;;;29.87;20.87;100572.19;5115698;28;1037;-33
2021/03/05 02:39:38;;;;;;;;;;;;;;;30.19;20.99;100567.00;5116096;28;1501;-32
2021/03/05 02:42:03;;;;;;;;;;;;;;;30.42;20.71;100563.88;5128132;27;1165;-29
2021/03/05 02:44:31;;;;;;;;;;;;;;;30.30;20.62;100566.41;5136233;27;802;-33
2021/03/05 02:46:58;;;;;;;;;;;;;;;30.03;21.13;100560.94;5137636;27;534;-33
2021/03/05 02:49:23;;;;;;;;;;;;;;;29.65;21.44;100565.06;5121083;27;1910;-29
2021/03/05 02:51:48;;;;;;;;;;;;;;;30.30;20.79;100565.56;5116908;28;806;-29
2021/03/05 02:54:14;;;;;;;;;;;;;;;30.47;20.64;100575.97;5115059;28;827;-32
2021/03/05 02:56:39;;;;;;;;;;;;;;;30.39;20.53;100566.19;5126065;27;954;-32
2021/03/05 02:59:04;;;;;;;;;;;;;;;30.18;20.49;100571.56;5136014;27;797;-31
2021/03/05 03:01:30;;;;;;;;;;;;;;;29.97;20.86;100578.03;5136805;27;798;-34
2021/03/05 03:03:55;;;;;;;;;;;;;;;30.29;20.80;100581.03;5136189;27;806;-32
2021/03/05 03:06:21;;;;;;;;;;;;;;;30.45;20.75;100578.09;5136071;27;787;-30
2021/03/05 03:08:47;;;;;;;;;;;;;;;30.51;20.56;100572.63;5137458;27;1984;-34
2021/03/05 03:11:12;;;;;;;;;;;;;;;30.22;20.85;100579.31;5136961;28;957;-32
2021/03/05 03:13:37;;;;;;;;;;;;;;;29.91;20.88;100570.75;5137159;28;751;-29
2021/03/05 03:16:03;;;;;;;;;;;;;;;30.08;21.23;100568.44;5136264;28;906;-30
2021/03/05 03:18:28;;;;;;;;;;;;;;;30.30;20.58;100566.41;5118063;28;1648;-35
2021/03/05 03:20:54;;;;;;;;;;;;;;;30.52;20.47;100568.88;5115413;28;902;-35
2021/03/05 03:23:19;;;;;;;;;;;;;;;30.36;20.36;100564.75;5116501;28;866;-30
2021/03/05 03:25:45;;;;;;;;;;;;;;;29.89;20.85;100570.94;5118259;28;949;-37
2021/03/05 03:28:10;;;;;;;;;;;;;;;29.78;21.24;100566.94;5136166;28;842;-31
2021/03/05 03:30:35;;;;;;;;;;;;;;;30.27;20.79;100564.09;5136844;28;1909;-29
2021/03/05 03:33:01;;;;;;;;;;;;;;;30.50;20.59;100562.81;5137408;28;806;-35
2021/03/05 03:35:26;;;;;;;;;;;;;;;30.17;19.85;100560.94;5135389;28;1172;-32
2021/03/05 03:37:51;;;;;;;;;;;;;;;28.11;20.79;100556.63;5115377;28;830;-34
2021/03/05 03:40:17;;;;;;;;;;;;;;;27.83;21.40;100556.56;5115682;28;952;-31
2021/03/05 03:42:43;;;;;;;;;;;;;;;29.39;20.57;100557.66;5115414;28;1165;-32
2021/03/05 03:45:09;;;;;;;;;;;;;;;29.87;20.03;100553.19;5116279;28;838;-34
2021/03/05 03:47:34;;;;;;;;;;;;;;;30.09;19.82;100553.84;5115728;28;787;-41
2021/03/05 03:50:00;;;;;;;;;;;;;;;29.72;20.11;100565.06;5115944;28;1978;-34
2021/03/05 03:52:33;;;;;;;;;;;;;;;29.37;20.71;100565.13;5115442;28;838;-34
2021/03/05 03:54:58;;;;;;;;;;;;;;;29.96;20.47;100568.25;5116698;28;767;-32
2021/03/05 03:57:24;;;;;;;;;;;;;;;30.18;20.03;100566.16;5116156;28;958;-34
2021/03/05 03:59:50;;;;;;;;;;;;;;;30.28;19.93;100564.94;5116195;28;802;-32
2021/03/05 04:02:15;;;;;;;;;;;;;;;29.86;20.32;100568.66;5116507;28;795;-30
2021/03/05 04:04:40;;;;;;;;;;;;;;;29.80;20.34;100562.16;5116262;28;906;-32
2021/03/05 04:07:06;;;;;;;;;;;;;;;30.14;20.20;100570.34;5119799;28;1389;-30
2021/03/05 04:09:31;;;;;;;;;;;;;;;30.26;20.13;100570.56;5119022;28;1901;-37
2021/03/05 04:11:57;;;;;;;;;;;;;;;30.34;20.14;100564.09;5119198;28;994;-33
2021/03/05 04:14:25;;;;;;;;;;;;;;;30.09;19.99;100553.00;5120009;28;844;-31
2021/03/05 04:16:54;;;;;;;;;;;;;;;29.88;20.14;100560.31;5115476;28;1292;-32
2021/03/05 04:19:19;;;;;;;;;;;;;;;29.86;20.36;100551.53;5119514;28;775;-32
2021/03/05 04:21:45;;;;;;;;;;;;;;;30.14;20.15;100543.22;5118068;28;1843;-32
2021/03/05 04:24:10;;;;;;;;;;;;;;;30.24;20.07;100550.13;5119133;28;750;-33
2021/03/05 04:26:36;;;;;;;;;;;;;;;30.33;19.97;100543.41;5119211;28;953;-30
2021/03/05 04:29:01;;;;;;;;;;;;;;;30.22;20.06;100546.78;5119633;28;1960;-31
2021/03/05 04:31:26;;;;;;;;;;;;;;;29.75;20.68;100542.13;5119850;28;744;-35
2021/03/05 04:33:51;;;;;;;;;;;;;;;29.52;19.85;100535.16;5119430;28;799;-33
2021/03/05 04:36:17;;;;;;;;;;;;;;;29.26;19.83;100534.88;5119557;28;1134;-41
2021/03/05 04:38:42;;;;;;;;;;;;;;;28.58;20.71;100542.66;5119757;28;851;-31
2021/03/05 04:41:07;;;;;;;;;;;;;;;27.97;21.76;100546.72;5123612;27;1004;-31
2021/03/05 04:43:33;;;;;;;;;;;;;;;28.53;21.15;100542.41;5140103;27;1086;-34
2021/03/05 04:45:58;;;;;;;;;;;;;;;28.02;21.63;100543.44;5140291;27;793;-29
2021/03/05 04:48:23;;;;;;;;;;;;;;;26.97;21.34;100543.50;5140013;27;850;-36
2021/03/05 04:50:48;;;;;;;;;;;;;;;24.83;19.92;100541.06;5139563;27;1937;-36
2021/03/05 04:53:14;;;;;;;;;;;;;;;23.74;20.28;100545.63;5140427;27;776;-44
2021/03/05 04:55:40;;;;;;;;;;;;;;;24.70;21.46;100545.16;5122941;27;1450;-34
2021/03/05 04:58:05;;;;;;;;;;;;;;;24.73;21.58;100546.63;5118952;28;752;-44
2021/03/05 05:00:31;;;;;;;;;;;;;;;25.13;21.02;100554.78;5135628;27;751;-36
2021/03/05 05:02:56;;;;;;;;;;;;;;;24.37;21.72;100544.34;5139691;27;798;-33
2021/03/05 05:05:21;;;;;;;;;;;;;;;24.74;21.57;100561.75;5139171;27;776;-31
2021/03/05 05:07:47;;;;;;;;;;;;;;;24.63;20.46;100554.06;5122426;27;784;-31
2021/03/05 05:10:12;;;;;;;;;;;;;;;24.06;21.64;100562.78;5118913;28;1964;-33
2021/03/05 05:12:37;;;;;;;;;;;;;;;24.08;20.65;100558.09;5118517;28;1000;-31
2021/03/05 05:15:03;;;;;;;;;;;;;;;24.17;20.74;100563.50;5118975;28;843;-31
2021/03/05 05:17:28;;;;;;;;;;;;;;;24.14;20.45;100561.94;5118120;28;1616;-30
2021/03/05 05:19:54;;;;;;;;;;;;;;;24.06;20.44;100567.31;5130197;27;822;-31
2021/03/05 05:22:19;;;;;;;;;;;;;;;23.96;21.18;100565.66;5139397;27;813;-37
2021/03/05 05:24:45;;;;;;;;;;;;;;;24.93;21.10;100565.13;5139512;27;814;-34
2021/03/05 05:27:10;;;;;;;;;;;;;;;25.21;20.39;100567.38;5125089;27;1096;-33
2021/03/05 05:29:35;;;;;;;;;;;;;;;26.22;19.04;100575.72;5118395;28;1962;-32
2021/03/05 05:32:00;;;;;;;;;;;;;;;26.59;18.52;100574.06;5119165;28;780;-34
2021/03/05 05:34:26;;;;;;;;;;;;;;;26.31;19.17;100585.41;5118701;28;881;-33
2021/03/05 05:36:51;;;;;;;;;;;;;;;26.62;18.20;100579.13;5118436;28;1044;-34
2021/03/05 05:39:16;;;;;;;;;;;;;;;25.50;19.77;100581.22;5116998;28;961;-44
2021/03/05 05:41:41;;;;;;;;;;;;;;;25.11;20.07;100570.25;5117847;28;965;-32
2021/03/05 05:44:07;;;;;;;;;;;;;;;25.99;19.21;100579.28;5118258;28;1314;-32
2021/03/05 05:46:32;;;;;;;;;;;;;;;26.33;18.81;100574.47;5118473;28;1191;-44
2021/03/05 05:48:58;;;;;;;;;;;;;;;26.43;18.53;100579.59;5116636;28;1918;-32
2021/03/05 05:51:32;;;;;;;;;;;;;;;26.64;18.39;100574.34;5117882;28;964;-34
2021/03/05 05:53:58;;;;;;;;;;;;;;;26.70;18.46;100572.78;5117134;28;826;-34
2021/03/05 05:56:24;;;;;;;;;;;;;;;26.39;18.59;100585.38;5117663;28;984;-33
2021/03/05 05:58:50;;;;;;;;;;;;;;;25.29;20.08;100577.28;5117579;28;834;-33
2021/03/05 06:01:15;;;;;;;;;;;;;;;25.72;19.96;100578.78;5116710;28;851;-47
2021/03/05 06:03:41;;;;;;;;;;;;;;;26.10;19.08;100580.69;5116105;28;1821;-48
2021/03/05 06:06:06;;;;;;;;;;;;;;;26.46;18.74;100587.38;5117993;28;743;-32
2021/03/05 06:08:32;;;;;;;;;;;;;;;25.42;20.27;100585.63;5117342;28;1968;-33
2021/03/05 06:10:57;;;;;;;;;;;;;;;25.50;20.29;100584.75;5116790;28;930;-32
2021/03/05 06:13:26;;;;;;;;;;;;;;;25.64;20.54;100588.56;5118125;28;815;-35
2021/03/05 06:16:10;;;;;;;;;;;;;;;25.79;20.39;100590.53;5117990;28;851;-34
2021/03/05 06:18:35;;;;;;;;;;;;;;;25.34;20.94;100588.34;5117330;28;847;-31
2021/03/05 06:21:00;;;;;;;;;;;;;;;25.53;20.85;100592.47;5116957;28;1063;-35
2021/03/05 06:23:26;;;;;;;;;;;;;;;25.85;20.59;100594.34;5117749;28;897;-35
2021/03/05 06:25:57;;;;;;;;;;;;;;;26.16;20.53;100601.53;5116969;28;970;-46
2021/03/05 06:28:23;;;;;;;;;;;;;;;25.50;21.30;100592.84;5116197;28;859;-47
2021/03/05 06:30:48;;;;;;;;;;;;;;;25.27;21.58;100598.16;5115037;28;1962;-31
2021/03/05 06:33:29;;;;;;;;;;;;;;;25.59;21.26;100595.50;5116110;28;848;-40
2021/03/05 06:35:55;;;;;;;;;;;;;;;25.58;21.42;100594.63;5117476;28;1208;-35
2021/03/05 06:38:40;;;;;;;;;;;;;;;25.66;21.49;100599.16;5117198;28;799;-35
2021/03/05 06:41:19;;;;;;;;;;;;;;;25.72;21.41;100600.31;5116377;28;973;-30
2021/03/05 06:43:45;;;;;;;;;;;;;;;26.01;21.30;100599.63;5117197;28;1083;-35
2021/03/05 06:46:26;;;;;;;;;;;;;;;26.00;21.08;100603.34;5117007;28;741;-36
2021/03/05 06:48:51;;;;;;;;;;;;;;;25.24;22.17;100598.50;5116694;28;1902;-33
2021/03/05 06:51:17;;;;;;;;;;;;;;;25.62;21.70;100593.28;5116987;28;834;-32
2021/03/05 06:53:42;;;;;;;;;;;;;;;25.98;21.42;100597.28;5116978;28;872;-37
2021/03/05 06:56:07;;;;;;;;;;;;;;;26.23;21.13;100605.19;5116118;28;981;-32
2021/03/05 06:58:33;;;;;;;;;;;;;;;26.07;21.31;100606.16;5115977;28;867;-37
2021/03/05 07:01:02;;;;;;;;;;;;;;;25.48;22.13;100594.84;5116902;28;758;-31
2021/03/05 07:03:27;;;;;;;;;;;;;;;25.78;22.27;100608.53;5116554;28;808;-37
2021/03/05 07:05:55;;;;;;;;;;;;;;;25.72;21.31;100603.88;5116708;28;905;-41
2021/03/05 07:08:39;;;;;;;;;;;;;;;25.66;21.35;100601.84;5116559;28;742;-37
2021/03/05 07:11:07;;;;;;;;;;;;;;;25.18;22.01;100600.03;5116619;28;1001;-33
2021/03/05 07:13:48;;;;;;;;;;;;;;;25.19;22.11;100601.72;5116788;28;795;-34
2021/03/05 07:16:13;;;;;;;;;;;;;;;25.19;22.26;100615.19;5117165;28;834;-39
2021/03/05 07:18:38;;;;;;;;;;;;;;;25.19;21.93;100617.88;5116509;28;779;-35
2021/03/05 07:21:04;;;;;;;;;;;;;;;25.44;21.70;100618.59;5116074;28;864;-34
2021/03/05 07:23:29;;;;;;;;;;;;;;;26.28;20.55;100620.84;5115680;28;759;-33
2021/03/05 07:25:54;;;;;;;;;;;;;;;25.32;21.75;100609.25;5116310;28;1012;-34
2021/03/05 07:28:19;;;;;;;;;;;;;;;25.28;21.83;100605.19;5115346;28;763;-37
2021/03/05 07:30:45;;;;;;;;;;;;;;;26.05;21.26;100616.28;5115247;28;1966;-31
2021/03/05 07:33:11;;;;;;;;;;;;;;;25.86;21.41;100613.03;5116424;28;835;-42
2021/03/05 07:35:37;;;;;;;;;;;;;;;25.50;21.74;100605.44;5116458;28;1122;-37
2021/03/05 07:38:03;;;;;;;;;;;;;;;25.60;21.56;100607.94;5116981;28;798;-40
2021/03/05 07:40:29;;;;;;;;;;;;;;;25.83;21.42;100607.16;5117474;28;817;-37
2021/03/05 07:42:55;;;;;;;;;;;;;;;25.29;22.23;100606.91;5140379;27;1098;-35
2021/03/05 07:45:20;;;;;;;;;;;;;;;25.22;22.56;100600.53;5141342;27;823;-36
2021/03/05 07:47:46;;;;;;;;;;;;;;;25.74;21.98;100611.78;5140945;27;827;-38
2021/03/05 07:50:11;;;;;;;;;;;;;;;25.26;22.57;100605.38;5138848;27;1909;-38
2021/03/05 07:52:37;;;;;;;;;;;;;;;25.11;22.92;100610.63;5139757;27;1145;-40
2021/03/05 07:55:02;;;;;;;;;;;;;;;25.93;21.91;100615.84;5140662;27;770;-36
2021/03/05 07:57:28;;;;;;;;;;;;;;;25.39;22.22;100607.50;5141122;27;1015;-39
2021/03/05 07:59:55;;;;;;;;;;;;;;;25.24;22.76;100607.41;5140957;27;842;-39
2021/03/05 08:02:22;;;;;;;;;;;;;;;25.99;22.11;100611.63;5140084;27;836;-38
2021/03/05 08:04:48;;;;;;;;;;;;;;;25.61;22.66;100599.66;5141223;27;790;-35
2021/03/05 08:07:13;;;;;;;;;;;;;;;25.60;22.70;100608.78;5140960;27;816;-34
2021/03/05 08:09:38;;;;;;;;;;;;;;;26.06;22.35;100600.97;5140270;27;1902;-36
2021/03/05 08:12:44;;;;;;;;;;;;;;;25.89;22.43;100601.06;5140409;27;1008;-37
2021/03/05 08:15:10;;;;;;;;;;;;;;;25.61;22.63;100593.47;5109476;27;1105;-38
2021/03/05 08:17:42;;;;;;;;;;;;;;;26.16;22.05;100594.28;5139817;27;823;-36
2021/03/05 08:20:11;;;;;;;;;;;;;;;25.72;20.53;100589.53;5140536;27;809;-36
2021/03/05 08:22:55;;;;;;;;;;;;;;;25.74;19.22;100584.81;5139377;27;1307;-36
2021/03/05 08:25:20;;;;;;;;;;;;;;;26.26;19.02;100585.13;5140243;27;760;-39
2021/03/05 08:27:47;;;;;;;;;;;;;;;25.94;19.16;100587.06;5140523;27;945;-36
2021/03/05 08:30:12;;;;;;;;;;;;;;;25.89;18.63;100588.41;5140282;27;1905;-37
2021/03/05 08:32:43;;;;;;;;;;;;;;;25.88;16.99;100583.22;5139888;27;1383;-37
2021/03/05 08:35:13;;;;;;;;;;;;;;;26.56;17.26;100581.72;5140375;27;728;-35
2021/03/05 08:37:41;;;;;;;;;;;;;;;26.02;18.17;100574.38;5120306;28;1256;-32
2021/03/05 08:40:13;;;;;;;;;;;;;;;25.87;19.25;100571.63;5118789;28;799;-35
2021/03/05 08:42:42;;;;;;;;;;;;;;;26.20;18.66;100581.31;5118985;28;1209;-34
2021/03/05 08:45:10;;;;;;;;;;;;;;;26.24;17.68;100581.78;5119563;28;751;-34
2021/03/05 08:47:35;;;;;;;;;;;;;;;25.90;18.54;100565.84;5119214;28;795;-34
2021/03/05 08:50:01;;;;;;;;;;;;;;;26.09;17.92;100576.34;5119303;28;1964;-38
2021/03/05 08:52:26;;;;;;;;;;;;;;;26.14;17.49;100572.06;5116656;28;1040;-35
2021/03/05 08:54:51;;;;;;;;;;;;;;;26.62;17.78;100573.72;5119439;28;839;-38
2021/03/05 08:57:18;;;;;;;;;;;;;;;26.47;17.51;100570.16;5117919;28;966;-33
2021/03/05 08:59:44;;;;;;;;;;;;;;;26.48;16.63;100569.97;5117878;28;842;-34
2021/03/05 09:02:12;;;;;;;;;;;;;;;26.36;16.67;100574.94;5118876;28;763;-32
2021/03/05 09:04:41;;;;;;;;;;;;;;;26.76;16.14;100563.09;5119185;28;785;-32
2021/03/05 09:07:06;;;;;;;;;;;;;;;26.34;16.99;100565.38;5119430;28;791;-35
2021/03/05 09:09:32;;;;;;;;;;;;;;;26.42;16.74;100568.00;5118677;28;1910;-36
2021/03/05 09:12:08;;;;;;;;;;;;;;;26.37;16.15;100570.41;5118727;28;961;-36
2021/03/05 09:14:33;;;;;;;;;;;;;;;26.60;16.18;100562.25;5118898;28;766;-38
2021/03/05 09:17:02;;;;;;;;;;;;;;;26.74;16.31;100562.47;5117839;28;759;-35
2021/03/05 09:19:31;;;;;;;;;;;;;;;26.69;16.16;100562.19;5118777;28;832;-34
2021/03/05 09:22:05;;;;;;;;;;;;;;;26.96;15.97;100567.97;5118874;28;814;-37
2021/03/05 09:24:49;;;;;;;;;;;;;;;26.66;16.22;100557.97;5118440;28;775;-36
2021/03/05 09:27:16;;;;;;;;;;;;;;;26.89;16.34;100566.00;5118641;28;994;-35
2021/03/05 09:29:41;;;;;;;;;;;;;;;26.88;16.48;100571.56;5118415;28;1897;-36
2021/03/05 09:32:06;;;;;;;;;;;;;;;27.09;16.53;100570.03;5118825;28;807;-43
2021/03/05 09:34:32;;;;;;;;;;;;;;;27.09;16.46;100572.75;5118250;28;783;-44
2021/03/05 09:36:57;;;;;;;;;;;;;;;27.00;16.58;100569.25;5118558;28;1153;-43
2021/03/05 09:39:22;;;;;;;;;;;;;;;26.98;16.98;100574.00;5118168;28;846;-43
2021/03/05 09:41:47;;;;;;;;;;;;;;;27.00;16.86;100578.19;5128742;27;989;-44
2021/03/05 09:44:13;;;;;;;;;;;;;;;27.31;16.75;100567.41;5137299;27;1208;-43
2021/03/05 09:46:39;;;;;;;;;;;;;;;26.99;17.01;100570.28;5138703;27;897;-43
2021/03/05 09:49:19;;;;;;;;;;;;;;;26.94;17.26;100561.91;5138586;27;1965;-43
2021/03/05 09:51:45;;;;;;;;;;;;;;;27.10;17.11;100556.34;5138953;27;815;-43
2021/03/05 09:54:10;;;;;;;;;;;;;;;26.81;17.58;100557.97;5138557;27;788;-43
2021/03/05 09:56:42;;;;;;;;;;;;;;;26.59;17.97;100554.34;5138090;27;976;-43
2021/03/05 09:59:07;;;;;;;;;;;;;;;26.95;17.54;100559.03;5138809;27;751;-43
2021/03/05 10:01:37;;;;;;;;;;;;;;;27.07;17.36;100553.19;5138244;27;755;-43
2021/03/05 10:04:02;;;;;;;;;;;;;;;27.01;17.72;100536.69;5138239;27;739;-43
2021/03/05 10:06:28;;;;;;;;;;;;;;;27.02;17.61;100546.50;5138682;27;775;-44
2021/03/05 10:09:06;;;;;;;;;;;;;;;26.53;16.76;100528.94;5138158;27;1964;-44
2021/03/05 10:11:41;;;;;;;;;;;;;;;26.58;18.19;100534.63;5138135;27;893;-44
2021/03/05 10:14:06;;;;;;;;;;;;;;;26.80;18.11;100531.19;5138224;27;874;-43
2021/03/05 10:16:36;;;;;;;;;;;;;;;26.82;18.30;100529.16;5138610;27;731;-44
2021/03/05 10:19:11;;;;;;;;;;;;;;;26.93;18.17;100533.22;5137975;27;808;-44
2021/03/05 10:21:40;;;;;;;;;;;;;;;26.96;18.29;100520.19;5138222;27;763;-44
2021/03/05 10:24:06;;;;;;;;;;;;;;;27.00;18.41;100516.13;5138141;27;751;-44
2021/03/05 10:26:31;;;;;;;;;;;;;;;26.92;18.54;100521.63;5121636;27;1096;-44
2021/03/05 10:29:00;;;;;;;;;;;;;;;26.97;18.42;100523.75;5096622;28;1973;-44
2021/03/05 10:31:45;;;;;;;;;;;;;;;27.24;17.75;100527.63;5097439;28;790;-44
2021/03/05 10:34:20;;;;;;;;;;;;;;;26.99;18.08;100516.31;5116926;28;863;-43
2021/03/05 10:36:45;;;;;;;;;;;;;;;27.35;18.08;100509.28;5117140;28;1055;-43
2021/03/05 10:39:10;;;;;;;;;;;;;;;27.29;18.02;100510.03;5117287;28;803;-43
2021/03/05 10:41:37;;;;;;;;;;;;;;;27.22;18.27;100499.16;5127937;27;863;-43
2021/03/05 10:44:02;;;;;;;;;;;;;;;27.18;18.44;100498.69;5137117;27;1077;-44
2021/03/05 10:46:27;;;;;;;;;;;;;;;27.26;17.84;100501.28;5138175;27;854;-44
2021/03/05 10:48:52;;;;;;;;;;;;;;;27.45;18.06;100501.69;5137688;27;2023;-43
2021/03/05 10:51:18;;;;;;;;;;;;;;;27.57;17.55;100495.78;5137305;27;814;-44
2021/03/05 10:53:43;;;;;;;;;;;;;;;27.71;17.46;100489.50;5137795;27;774;-43
2021/03/05 10:56:08;;;;;;;;;;;;;;;27.65;17.38;100490.25;5137227;27;1150;-43
2021/03/05 10:58:34;;;;;;;;;;;;;;;27.56;17.51;100480.63;5130059;27;1090;-42
2021/03/05 11:00:59;;;;;;;;;;;;;;;27.72;16.87;100474.97;5117125;28;802;-43
2021/03/05 11:03:24;;;;;;;;;;;;;;;27.79;16.63;100480.44;5117035;28;835;-44
2021/03/05 11:05:50;;;;;;;;;;;;;;;27.59;16.69;100477.53;5116857;28;799;-43
2021/03/05 11:08:17;;;;;;;;;;;;;;;27.69;16.51;100469.97;5116529;28;727;-43
2021/03/05 11:10:42;;;;;;;;;;;;;;;27.92;16.22;100460.81;5117510;28;1962;-44
2021/03/05 11:13:08;;;;;;;;;;;;;;;27.49;17.09;100459.75;5137675;27;763;-44
2021/03/05 11:15:33;;;;;;;;;;;;;;;27.35;17.03;100469.59;5136521;27;799;-43
2021/03/05 11:17:59;;;;;;;;;;;;;;;27.31;17.45;100448.56;5122339;28;888;-43
2021/03/05 11:20:24;;;;;;;;;;;;;;;27.43;17.64;100455.13;5119956;28;1529;-43
2021/03/05 11:22:50;;;;;;;;;;;;;;;27.62;17.33;100453.66;5116789;28;1283;-43
2021/03/05 11:25:16;;;;;;;;;;;;;;;27.82;16.71;100458.44;5113859;28;1201;-43
2021/03/05 11:27:41;;;;;;;;;;;;;;;27.66;16.75;100455.97;5116037;28;1291;-44
2021/03/05 11:30:07;;;;;;;;;;;;;;;27.90;16.34;100456.59;5115497;28;1910;-43
2021/03/05 11:32:33;;;;;;;;;;;;;;;27.91;16.08;100448.31;5116299;28;1272;-43
2021/03/05 11:34:59;;;;;;;;;;;;;;;27.74;16.30;100450.47;5116433;28;1263;-43
2021/03/05 11:37:24;;;;;;;;;;;;;;;27.76;16.47;100445.69;5116062;28;1067;-43
2021/03/05 11:39:50;;;;;;;;;;;;;;;27.78;16.58;100456.31;5116605;28;841;-43
2021/03/05 11:42:15;;;;;;;;;;;;;;;27.68;16.85;100448.50;5130658;28;1046;-42
2021/03/05 11:44:40;;;;;;;;;;;;;;;27.76;16.67;100442.97;5137068;28;823;-43
2021/03/05 11:47:05;;;;;;;;;;;;;;;27.63;17.06;100449.06;5137302;28;811;-43
2021/03/05 11:49:31;;;;;;;;;;;;;;;27.73;17.24;100444.22;5136999;28;1909;-44
2021/03/05 11:51:56;;;;;;;;;;;;;;;27.80;17.04;100438.88;5136871;28;879;-44
2021/03/05 11:54:21;;;;;;;;;;;;;;;27.74;16.59;100448.56;5137326;28;752;-44
2021/03/05 11:56:47;;;;;;;;;;;;;;;27.62;16.85;100439.31;5136699;28;1023;-44
2021/03/05 11:59:12;;;;;;;;;;;;;;;27.97;16.71;100434.03;5136292;28;824;-43
2021/03/05 12:01:38;;;;;;;;;;;;;;;28.08;16.59;100431.78;5137148;28;751;-32
2021/03/05 12:04:03;;;;;;;;;;;;;;;27.92;16.55;100443.75;5136994;28;818;-44
2021/03/05 12:06:29;;;;;;;;;;;;;;;27.69;16.37;100436.69;5136366;28;839;-40
2021/03/05 12:08:54;;;;;;;;;;;;;;;27.48;16.50;100430.22;5136747;28;1874;-40
2021/03/05 12:11:19;;;;;;;;;;;;;;;27.50;16.64;100433.59;5136456;28;917;-34
2021/03/05 12:13:45;;;;;;;;;;;;;;;27.38;16.22;100442.19;5136624;28;767;-30
2021/03/05 12:16:10;;;;;;;;;;;;;;;27.44;16.15;100434.38;5136679;28;862;-31
2021/03/05 12:18:35;;;;;;;;;;;;;;;27.34;16.13;100435.50;5137149;28;826;-41
2021/03/05 12:21:01;;;;;;;;;;;;;;;27.40;16.44;100431.22;5136640;28;819;-30
2021/03/05 12:23:27;;;;;;;;;;;;;;;27.36;16.30;100424.53;5136888;28;741;-45
2021/03/05 12:25:52;;;;;;;;;;;;;;;27.65;15.96;100433.50;5137044;27;1024;-36
2021/03/05 12:28:17;;;;;;;;;;;;;;;27.27;16.21;100418.41;5140391;27;842;-44
2021/03/05 12:30:43;;;;;;;;;;;;;;;27.07;16.83;100410.94;5140115;27;1906;-37
2021/03/05 12:33:08;;;;;;;;;;;;;;;26.97;17.33;100416.63;5140219;27;844;-34
2021/03/05 12:35:33;;;;;;;;;;;;;;;27.00;17.30;100416.22;5137464;27;1038;-31
2021/03/05 12:37:59;;;;;;;;;;;;;;;26.89;17.24;100412.16;5119541;28;862;-46
2021/03/05 12:40:24;;;;;;;;;;;;;;;27.21;17.11;100416.50;5119773;28;756;-35
2021/03/05 12:42:55;;;;;;;;;;;;;;;26.89;17.53;100412.16;5118593;28;1154;-33
2021/03/05 12:45:20;;;;;;;;;;;;;;;26.99;17.70;100397.53;5119269;28;840;-34
2021/03/05 12:47:45;;;;;;;;;;;;;;;26.87;17.80;100410.69;5119543;28;829;-35
2021/03/05 12:50:10;;;;;;;;;;;;;;;26.75;17.94;100418.41;5119010;28;1973;-32